Time;durP1;ratioP1;P1;durP2;ratioP2;P2;SDS_P1;SDS_P2;PMS_P1;PMS_P2;Temp;Humidity;BMP_temperature;BMP_pressure;BME280_temperature;BME280_humidity;BME280_pressure;Samples;Min_cycle;Max_cycle;Signal;HPM_P1;HPM_P2
2022/08/09 00:02:08;;;;;;;7.47;2.40;;;14.50;99.90;;;;;;5087787;28;20048;-92
2022/08/09 00:04:34;;;;;;;5.28;2.70;;;14.50;99.90;;;;;;5072921;28;20088;-92
2022/08/09 00:07:00;;;;;;;3.33;2.33;;;14.40;99.90;;;;;;5055423;28;20042;-92
2022/08/09 00:09:26;;;;;;;3.35;2.50;;;14.40;99.90;;;;;;5089087;28;20105;-91
2022/08/09 00:11:52;;;;;;;4.80;2.33;;;14.40;99.90;;;;;;5072016;28;20036;-91
2022/08/09 00:14:19;;;;;;;5.05;2.10;;;14.40;99.90;;;;;;5088493;28;20402;-90
2022/08/09 00:16:45;;;;;;;3.63;2.25;;;14.40;99.90;;;;;;5072198;28;20036;-91
2022/08/09 00:19:10;;;;;;;6.65;2.90;;;14.30;99.90;;;;;;5088015;28;20487;-92
2022/08/09 00:21:37;;;;;;;4.82;2.80;;;15.40;99.90;;;;;;5072154;28;20490;-92
2022/08/09 00:24:04;;;;;;;4.10;2.60;;;14.30;99.90;;;;;;5071610;28;20140;-92
2022/08/09 00:26:30;;;;;;;4.25;3.15;;;14.30;99.90;;;;;;5054690;28;20043;-91
2022/08/09 00:28:56;;;;;;;3.47;3.15;;;14.20;99.90;;;;;;5088408;28;20036;-91
2022/08/09 00:31:23;;;;;;;3.45;2.92;;;14.30;99.90;;;;;;5087888;28;20044;-91
2022/08/09 00:33:51;;;;;;;5.18;2.70;;;14.20;99.90;;;;;;5088774;28;20042;-92
2022/08/09 00:36:17;;;;;;;6.00;3.22;;;14.40;99.90;;;;;;5071447;28;20388;-92
2022/08/09 00:38:43;;;;;;;4.07;2.60;;;14.20;99.90;;;;;;5088780;28;20050;-91
2022/08/09 00:41:10;;;;;;;3.55;2.50;;;14.20;99.90;;;;;;5087525;28;20039;-91
2022/08/09 00:43:36;;;;;;;3.40;2.85;;;14.40;99.90;;;;;;5089034;28;20489;-90
2022/08/09 00:46:11;;;;;;;2.67;2.35;;;14.20;99.90;;;;;;5088268;28;20048;-92
2022/08/09 00:48:37;;;;;;;3.70;3.17;;;14.20;99.90;;;;;;5071228;28;20506;-91
2022/08/09 00:51:06;;;;;;;3.13;2.47;;;14.20;99.90;;;;;;5054903;28;20091;-92
2022/08/09 00:53:34;;;;;;;2.83;2.40;;;14.20;99.90;;;;;;5071346;28;20073;-93
2022/08/09 00:56:00;;;;;;;4.65;2.55;;;14.20;99.90;;;;;;5088619;28;20512;-93
2022/08/09 00:58:26;;;;;;;4.50;2.25;;;14.10;99.90;;;;;;5071432;28;20074;-94
2022/08/09 01:00:56;;;;;;;3.13;2.30;;;14.30;99.90;;;;;;5087969;28;20140;-92
2022/08/09 01:03:44;;;;;;;2.33;1.83;;;14.10;99.90;;;;;;5088587;28;20044;-95
2022/08/09 01:06:26;;;;;;;2.65;2.00;;;14.10;99.90;;;;;;5087958;28;20482;-94
2022/08/09 01:09:21;;;;;;;2.30;2.00;;;14.10;99.90;;;;;;5089223;28;20566;-94
2022/08/09 01:11:53;;;;;;;2.58;1.88;;;14.10;99.90;;;;;;5088209;28;20043;-93
2022/08/09 01:14:34;;;;;;;4.50;2.10;;;14.00;99.90;;;;;;5089955;28;20462;-95
2022/08/09 01:17:31;;;;;;;3.38;2.03;;;14.00;99.90;;;;;;5093139;28;20058;-93
2022/08/09 01:20:05;;;;;;;2.65;2.28;;;14.40;99.90;;;;;;5072096;28;20063;-93
2022/08/09 01:22:49;;;;;;;3.40;1.70;;;14.00;99.90;;;;;;5091514;28;20043;-92
2022/08/09 01:25:23;;;;;;;2.03;1.42;;;13.90;99.90;;;;;;5092269;28;20385;-92
2022/08/09 01:27:52;;;;;;;2.75;2.03;;;14.40;99.90;;;;;;5090898;28;20082;-93
2022/08/09 01:30:21;;;;;;;4.22;1.85;;;13.80;99.90;;;;;;5075954;28;20044;-92
2022/08/09 01:32:49;;;;;;;4.78;2.05;;;13.80;99.90;;;;;;5090955;28;20123;-93
2022/08/09 01:35:38;;;;;;;2.85;1.73;;;13.80;99.90;;;;;;5074676;28;20070;-93
2022/08/09 01:38:07;;;;;;;3.97;2.60;;;13.80;99.90;;;;;;5091880;28;20039;-92
2022/08/09 01:40:36;;;;;;;2.80;1.88;;;13.80;99.90;;;;;;5090855;28;20048;-92
2022/08/09 01:43:04;;;;;;;2.97;1.77;;;13.80;99.90;;;;;;5092778;28;20043;-95
2022/08/09 01:45:34;;;;;;;3.53;2.03;;;13.80;99.90;;;;;;5090928;28;20040;-96
2022/08/09 01:48:01;;;;;;;3.08;1.55;;;13.80;99.90;;;;;;5074724;28;20047;-95
2022/08/09 01:50:29;;;;;;;2.58;1.70;;;14.20;99.90;;;;;;5091898;28;20051;-96
2022/08/09 01:52:56;;;;;;;2.22;1.92;;;13.70;99.90;;;;;;5090942;28;20040;-96
2022/08/09 01:55:24;;;;;;;2.25;2.00;;;14.30;99.90;;;;;;5075097;28;20046;-96
2022/08/09 01:57:52;;;;;;;2.97;1.50;;;13.60;99.90;;;;;;5074339;28;20065;-92
2022/08/09 02:00:18;;;;;;;1.65;1.50;;;13.70;99.90;;;;;;5074929;28;20121;-92
2022/08/09 02:02:48;;;;;;;3.42;1.95;;;13.80;99.90;;;;;;5074124;28;20079;-93
2022/08/09 02:05:17;;;;;;;3.35;1.83;;;13.60;99.90;;;;;;5091025;28;20379;-93
2022/08/09 02:07:48;;;;;;;7.50;1.98;;;13.50;99.90;;;;;;5091430;28;20089;-95
2022/08/09 02:10:20;;;;;;;2.85;1.55;;;14.10;99.90;;;;;;5090628;28;20040;-95
2022/08/09 02:12:47;;;;;;;3.28;1.80;;;13.50;99.90;;;;;;5091764;28;20039;-96
2022/08/09 02:15:16;;;;;;;4.00;1.88;;;13.40;99.90;;;;;;5090520;28;20073;-95
2022/08/09 02:17:45;;;;;;;1.98;1.30;;;13.50;99.90;;;;;;5091504;28;20577;-95
2022/08/09 02:20:11;;;;;;;4.90;1.60;;;13.40;99.90;;;;;;5074544;28;20151;-93
2022/08/09 02:22:41;;;;;;;3.28;1.50;;;13.90;99.90;;;;;;5056725;28;20050;-92
2022/08/09 02:25:13;;;;;;;2.67;1.90;;;13.30;99.90;;;;;;5090911;28;20479;-92
2022/08/09 02:27:44;;;;;;;1.58;1.27;;;13.20;99.90;;;;;;5090530;28;20071;-93
2022/08/09 02:30:12;;;;;;;2.38;1.45;;;13.20;99.90;;;;;;5091403;28;20059;-93
2022/08/09 02:32:44;;;;;;;1.98;1.23;;;13.20;99.90;;;;;;5090071;28;20451;-91
2022/08/09 02:35:22;;;;;;;2.35;1.35;;;13.50;99.90;;;;;;5090374;28;20494;-91
2022/08/09 02:37:51;;;;;;;7.50;1.90;;;13.20;99.90;;;;;;5090926;28;20047;-91
2022/08/09 02:40:19;;;;;;;3.60;1.58;;;13.10;99.90;;;;;;5089732;28;20502;-91
2022/08/09 02:42:48;;;;;;;2.17;1.50;;;14.20;99.90;;;;;;5074214;28;20044;-92
2022/08/09 02:45:23;;;;;;;2.90;1.60;;;13.90;99.90;;;;;;5089480;28;20036;-92
2022/08/09 02:47:50;;;;;;;4.35;2.20;;;13.10;99.90;;;;;;5091193;28;20043;-92
2022/08/09 02:50:22;;;;;;;4.88;2.10;;;13.10;99.90;;;;;;5073208;28;20066;-92
2022/08/09 02:52:53;;;;;;;1.92;1.58;;;13.30;99.90;;;;;;5090508;28;20134;-92
2022/08/09 02:55:19;;;;;;;1.92;1.52;;;13.10;99.90;;;;;;5091240;28;20036;-92
2022/08/09 02:57:47;;;;;;;1.83;1.17;;;13.50;99.90;;;;;;5089366;28;20039;-92
2022/08/09 03:00:14;;;;;;;3.17;1.55;;;13.00;99.90;;;;;;5090161;28;20112;-91
2022/08/09 03:02:45;;;;;;;2.00;1.10;;;13.00;99.90;;;;;;5072677;28;20107;-92
2022/08/09 03:05:12;;;;;;;2.10;1.25;;;14.20;99.90;;;;;;5089805;28;20495;-92
2022/08/09 03:07:40;;;;;;;3.08;1.00;;;13.10;99.90;;;;;;5073059;28;20065;-92
2022/08/09 03:10:07;;;;;;;3.10;1.25;;;13.00;99.90;;;;;;5089698;28;20048;-92
2022/08/09 03:12:36;;;;;;;1.23;0.80;;;13.00;99.90;;;;;;5073932;28;20440;-91
2022/08/09 03:15:04;;;;;;;1.17;0.90;;;13.40;99.90;;;;;;5088999;28;20079;-91
2022/08/09 03:17:31;;;;;;;0.90;0.70;;;13.00;99.90;;;;;;5090333;28;20043;-92
2022/08/09 03:20:00;;;;;;;1.30;0.77;;;13.00;99.90;;;;;;5072079;28;20047;-91
2022/08/09 03:22:29;;;;;;;1.45;0.70;;;13.00;99.90;;;;;;5089257;28;20047;-91
2022/08/09 03:24:54;;;;;;;2.72;0.80;;;12.90;99.90;;;;;;5089483;28;20035;-90
2022/08/09 03:27:21;;;;;;;0.82;0.70;;;13.40;99.90;;;;;;5089339;28;20208;-89
2022/08/09 03:29:47;;;;;;;1.02;0.50;;;13.90;99.90;;;;;;5056319;28;20046;-90
2022/08/09 03:32:14;;;;;;;1.85;0.80;;;13.00;99.90;;;;;;5054991;28;20092;-89
2022/08/09 03:34:40;;;;;;;1.20;0.50;;;13.00;99.90;;;;;;5089606;28;20047;-90
2022/08/09 03:37:06;;;;;;;0.60;0.50;;;13.60;99.90;;;;;;5054442;28;20048;-90
2022/08/09 03:39:32;;;;;;;0.55;0.45;;;13.90;99.90;;;;;;5072168;28;20180;-89
2022/08/09 03:41:58;;;;;;;0.80;0.50;;;13.80;99.90;;;;;;5072525;28;20065;-89
2022/08/09 03:44:24;;;;;;;0.50;0.40;;;13.60;99.90;;;;;;5054915;28;20478;-88
2022/08/09 03:46:50;;;;;;;0.40;0.35;;;12.90;99.90;;;;;;5055694;28;20551;-90
2022/08/09 03:49:17;;;;;;;1.27;0.77;;;14.00;99.90;;;;;;5088479;28;20066;-89
2022/08/09 03:51:45;;;;;;;1.38;0.65;;;13.30;99.90;;;;;;5056353;28;20093;-91
2022/08/09 03:54:13;;;;;;;1.10;0.70;;;12.90;99.90;;;;;;5071975;28;20044;-90
2022/08/09 03:56:40;;;;;;;0.90;0.60;;;13.20;99.90;;;;;;5072175;28;20039;-89
2022/08/09 03:59:07;;;;;;;2.45;0.52;;;13.20;99.90;;;;;;5088752;27;20123;-90
2022/08/09 04:01:34;;;;;;;0.75;0.55;;;12.90;99.90;;;;;;5058634;27;20134;-90
2022/08/09 04:04:01;;;;;;;1.75;0.70;;;13.50;99.90;;;;;;5092280;27;20126;-90
2022/08/09 04:06:28;;;;;;;0.80;0.57;;;13.40;99.90;;;;;;5074496;28;20047;-91
2022/08/09 04:08:53;;;;;;;1.15;0.73;;;13.40;99.90;;;;;;5075991;27;20441;-90
2022/08/09 04:11:19;;;;;;;1.58;0.90;;;12.80;99.90;;;;;;5057804;27;20050;-91
2022/08/09 04:13:45;;;;;;;1.17;0.68;;;13.00;99.90;;;;;;5058997;27;20486;-94
2022/08/09 04:16:10;;;;;;;0.90;0.52;;;12.80;99.90;;;;;;5075985;27;20039;-94
2022/08/09 04:18:36;;;;;;;1.38;0.60;;;13.60;99.90;;;;;;5058577;27;20152;-94
2022/08/09 04:21:02;;;;;;;2.08;0.65;;;13.20;99.90;;;;;;5059202;28;20050;-88
2022/08/09 04:23:27;;;;;;;0.80;0.52;;;12.80;99.90;;;;;;5090977;28;20047;-92
2022/08/09 04:25:54;;;;;;;0.65;0.40;;;12.80;99.90;;;;;;5059079;28;20125;-90
2022/08/09 04:28:21;;;;;;;0.90;0.63;;;12.70;99.90;;;;;;5075137;28;20502;-92
2022/08/09 04:30:47;;;;;;;1.20;0.80;;;12.80;99.90;;;;;;5092656;28;20428;-91
2022/08/09 04:33:13;;;;;;;0.90;0.70;;;13.50;99.90;;;;;;5075803;28;20039;-92
2022/08/09 04:35:41;;;;;;;2.38;0.63;;;12.90;99.90;;;;;;5075064;28;20394;-92
2022/08/09 04:38:07;;;;;;;1.33;0.70;;;13.40;99.90;;;;;;5060114;28;20153;-92
2022/08/09 04:40:48;;;;;;;0.88;0.65;;;12.80;99.90;;;;;;5074874;28;20043;-90
2022/08/09 04:43:17;;;;;;;0.82;0.52;;;13.70;99.90;;;;;;5092695;28;20032;-90
2022/08/09 04:45:44;;;;;;;3.28;0.98;;;12.60;99.90;;;;;;5091227;28;20055;-93
2022/08/09 04:48:11;;;;;;;2.03;0.80;;;12.90;99.90;;;;;;5091078;27;20090;-86
2022/08/09 04:50:37;;;;;;;1.63;1.10;;;12.90;99.90;;;;;;5094852;27;20035;-86
2022/08/09 04:53:06;;;;;;;1.40;0.90;;;12.90;99.90;;;;;;5094020;27;20046;-86
2022/08/09 04:55:32;;;;;;;1.65;0.90;;;12.90;99.90;;;;;;5096010;27;20047;-84
2022/08/09 04:57:58;;;;;;;1.70;1.45;;;13.70;99.90;;;;;;5093852;27;20051;-84
2022/08/09 05:00:23;;;;;;;2.90;0.95;;;13.00;99.90;;;;;;5111481;27;20135;-83
2022/08/09 05:02:49;;;;;;;1.23;0.95;;;13.80;99.90;;;;;;5076911;27;20061;-85
2022/08/09 05:05:15;;;;;;;1.92;0.80;;;13.90;99.90;;;;;;5110835;27;20051;-85
2022/08/09 05:07:40;;;;;;;1.70;1.10;;;13.40;99.90;;;;;;5094242;27;20129;-84
2022/08/09 05:10:07;;;;;;;1.98;1.30;;;14.00;99.90;;;;;;5110798;27;20046;-84
2022/08/09 05:12:33;;;;;;;2.15;1.30;;;13.30;99.90;;;;;;5111433;27;20039;-84
2022/08/09 05:14:59;;;;;;;3.28;1.20;;;13.30;99.90;;;;;;5110273;27;20049;-86
2022/08/09 05:17:24;;;;;;;2.20;0.98;;;14.10;99.90;;;;;;5094564;27;20078;-83
2022/08/09 05:19:50;;;;;;;1.98;0.88;;;13.40;99.90;;;;;;5110257;27;20047;-84
2022/08/09 05:22:16;;;;;;;2.03;0.85;;;13.50;99.90;;;;;;5076886;27;20084;-85
2022/08/09 05:24:41;;;;;;;0.70;0.50;;;13.60;99.90;;;;;;5077156;27;20043;-89
2022/08/09 05:27:07;;;;;;;1.48;0.80;;;13.60;99.90;;;;;;5076751;27;20292;-84
2022/08/09 05:29:33;;;;;;;1.33;1.15;;;13.80;99.90;;;;;;5093918;27;20039;-84
2022/08/09 05:31:59;;;;;;;1.70;1.02;;;13.80;99.90;;;;;;5110608;27;20127;-83
2022/08/09 05:34:30;;;;;;;4.72;1.40;;;13.90;99.90;;;;;;5111096;27;20100;-85
2022/08/09 05:36:56;;;;;;;1.42;1.02;;;14.00;99.90;;;;;;5110183;27;20142;-84
2022/08/09 05:39:22;;;;;;;4.20;1.60;;;14.20;99.90;;;;;;5094331;27;20114;-84
2022/08/09 05:41:48;;;;;;;5.88;1.88;;;14.20;99.90;;;;;;5110211;27;20054;-84
2022/08/09 05:44:14;;;;;;;2.22;1.83;;;14.30;99.90;;;;;;5093056;27;20074;-81
2022/08/09 05:46:40;;;;;;;2.00;1.80;;;15.20;99.90;;;;;;5129481;27;20054;-86
2022/08/09 05:49:06;;;;;;;2.05;1.80;;;14.60;99.90;;;;;;5109552;27;20035;-86
2022/08/09 05:51:32;;;;;;;2.25;1.75;;;14.70;99.90;;;;;;5094016;27;20497;-86
2022/08/09 05:53:57;;;;;;;5.32;2.10;;;14.80;99.90;;;;;;5109499;27;20130;-86
2022/08/09 05:56:23;;;;;;;5.88;1.95;;;14.90;99.90;;;;;;5093420;27;20220;-86
2022/08/09 05:58:50;;;;;;;7.05;2.50;;;15.70;99.90;;;;;;5076379;27;20137;-87
2022/08/09 06:01:15;;;;;;;5.85;2.63;;;15.20;99.90;;;;;;5092193;27;20587;-86
2022/08/09 06:03:41;;;;;;;4.30;2.47;;;15.30;99.90;;;;;;5110413;27;20130;-86
2022/08/09 06:06:07;;;;;;;5.00;2.40;;;15.50;99.90;;;;;;5092303;27;20046;-86
2022/08/09 06:08:33;;;;;;;5.90;3.13;;;15.60;99.90;;;;;;5110649;27;20043;-86
2022/08/09 06:10:58;;;;;;;6.38;3.67;;;15.80;99.90;;;;;;5092329;27;20039;-85
2022/08/09 06:13:25;;;;;;;4.88;3.03;;;15.90;99.90;;;;;;5110644;27;20058;-86
2022/08/09 06:15:51;;;;;;;5.55;3.13;;;16.10;99.90;;;;;;5109582;27;20054;-86
2022/08/09 06:18:17;;;;;;;3.85;3.03;;;17.00;99.90;;;;;;5092465;27;20039;-86
2022/08/09 06:20:43;;;;;;;8.00;2.97;;;17.00;99.90;;;;;;5076364;27;20087;-86
2022/08/09 06:23:08;;;;;;;5.45;2.75;;;16.60;99.90;;;;;;5092654;27;20041;-86
2022/08/09 06:25:34;;;;;;;5.13;3.22;;;16.70;99.90;;;;;;5110891;27;20201;-86
2022/08/09 06:28:00;;;;;;;6.28;3.15;;;16.80;99.90;;;;;;5092335;27;20082;-86
2022/08/09 06:30:25;;;;;;;8.27;2.33;;;17.00;99.90;;;;;;5093079;27;20382;-86
2022/08/09 06:32:51;;;;;;;4.22;2.30;;;17.10;99.90;;;;;;5093036;27;20108;-86
2022/08/09 06:35:18;;;;;;;8.48;3.00;;;17.20;99.90;;;;;;5092866;27;20079;-86
2022/08/09 06:37:44;;;;;;;4.20;2.10;;;17.40;99.90;;;;;;5093162;27;20078;-86
2022/08/09 06:40:11;;;;;;;7.13;2.72;;;17.50;99.90;;;;;;5092750;27;20469;-86
2022/08/09 06:42:37;;;;;;;6.47;2.00;;;17.70;99.90;;;;;;5128589;27;20383;-86
2022/08/09 06:45:03;;;;;;;4.90;2.60;;;17.80;99.90;;;;;;5127845;27;20169;-86
2022/08/09 06:47:28;;;;;;;4.97;2.42;;;17.90;99.90;;;;;;5128652;27;20047;-86
2022/08/09 06:49:54;;;;;;;5.45;2.08;;;18.00;99.90;;;;;;5091779;27;20048;-86
2022/08/09 06:52:20;;;;;;;4.40;2.22;;;18.10;99.90;;;;;;5109487;27;20043;-86
2022/08/09 06:54:46;;;;;;;2.83;2.40;;;18.20;99.90;;;;;;5127581;27;20489;-87
2022/08/09 06:57:11;;;;;;;4.05;2.63;;;19.20;99.90;;;;;;5108934;27;20110;-87
2022/08/09 06:59:37;;;;;;;2.88;2.30;;;18.40;99.90;;;;;;5109923;27;20066;-91
2022/08/09 07:02:03;;;;;;;5.80;2.90;;;18.50;99.90;;;;;;5075025;27;20120;-87
2022/08/09 07:04:29;;;;;;;5.43;2.53;;;18.60;99.90;;;;;;5109423;27;20047;-86
2022/08/09 07:06:54;;;;;;;4.97;2.00;;;18.70;99.90;;;;;;5091486;27;20047;-87
2022/08/09 07:09:20;;;;;;;6.75;2.10;;;18.80;99.90;;;;;;5091923;27;20042;-86
2022/08/09 07:11:46;;;;;;;3.60;2.10;;;18.90;99.90;;;;;;5108834;27;20573;-86
2022/08/09 07:14:16;;;;;;;4.07;1.75;;;19.00;99.90;;;;;;5091636;27;20043;-86
2022/08/09 07:16:43;;;;;;;3.78;2.00;;;19.00;99.90;;;;;;5109414;27;20079;-86
2022/08/09 07:19:10;;;;;;;3.88;1.88;;;19.20;99.90;;;;;;5108062;27;20069;-87
2022/08/09 07:21:37;;;;;;;3.45;2.10;;;19.30;99.90;;;;;;5091989;27;20043;-86
2022/08/09 07:24:03;;;;;;;4.63;1.75;;;19.30;99.90;;;;;;5091455;27;20441;-86
2022/08/09 07:26:29;;;;;;;2.95;1.52;;;19.40;99.90;;;;;;5109366;27;20047;-86
2022/08/09 07:28:55;;;;;;;3.35;1.35;;;19.50;99.90;;;;;;5091175;27;20504;-87
2022/08/09 07:31:21;;;;;;;5.28;2.10;;;19.60;99.90;;;;;;5091307;27;20055;-87
2022/08/09 07:33:48;;;;;;;3.53;1.38;;;19.20;99.90;;;;;;5091742;27;20054;-86
2022/08/09 07:36:14;;;;;;;3.50;1.58;;;19.90;99.90;;;;;;5108034;27;20478;-87
2022/08/09 07:38:40;;;;;;;7.47;1.55;;;20.80;99.90;;;;;;5074891;27;20043;-86
2022/08/09 07:41:06;;;;;;;3.17;1.20;;;20.20;99.90;;;;;;5090554;27;20046;-87
2022/08/09 07:43:31;;;;;;;2.65;1.02;;;20.40;99.90;;;;;;5075013;27;20038;-86
2022/08/09 07:45:57;;;;;;;3.50;1.20;;;20.50;99.90;;;;;;5074499;27;20061;-88
2022/08/09 07:48:23;;;;;;;2.53;1.20;;;20.50;99.90;;;;;;5091305;27;20478;-87
2022/08/09 07:50:49;;;;;;;3.58;0.93;;;20.60;99.90;;;;;;5108186;27;20039;-88
2022/08/09 07:53:15;;;;;;;3.40;1.05;;;20.60;99.90;;;;;;5073900;27;20053;-87
2022/08/09 07:55:41;;;;;;;2.00;0.95;;;20.40;99.90;;;;;;5091469;27;20132;-87
2022/08/09 07:58:07;;;;;;;2.40;0.85;;;20.70;99.90;;;;;;5107355;27;20129;-87
2022/08/09 08:00:33;;;;;;;1.13;0.63;;;20.80;99.90;;;;;;5074228;27;20050;-88
2022/08/09 08:02:59;;;;;;;3.25;1.02;;;20.90;99.90;;;;;;5107723;27;20506;-88
2022/08/09 08:05:25;;;;;;;2.00;0.70;;;21.10;99.90;;;;;;5074259;27;20043;-88
2022/08/09 08:07:53;;;;;;;1.17;0.70;;;21.10;99.90;;;;;;5093457;27;20035;-87
2022/08/09 08:10:20;;;;;;;3.15;0.77;;;21.00;99.90;;;;;;5078927;28;20038;-87
2022/08/09 08:12:46;;;;;;;1.48;0.63;;;21.00;99.90;;;;;;5079216;27;20051;-88
2022/08/09 08:15:14;;;;;;;2.67;0.50;;;21.10;99.90;;;;;;5110979;27;20035;-87
2022/08/09 08:17:41;;;;;;;2.65;0.60;;;21.30;99.90;;;;;;5111848;27;20141;-87
2022/08/09 08:20:08;;;;;;;1.35;0.70;;;21.40;99.90;;;;;;5094287;28;20091;-88
2022/08/09 08:22:34;;;;;;;1.75;0.70;;;21.30;99.90;;;;;;5112608;28;20482;-87
2022/08/09 08:24:59;;;;;;;2.00;0.95;;;21.30;99.90;;;;;;5094642;28;20044;-87
2022/08/09 08:27:25;;;;;;;4.22;0.63;;;21.10;99.90;;;;;;5091742;28;20066;-87
2022/08/09 08:29:52;;;;;;;1.30;0.60;;;21.00;99.90;;;;;;5108375;28;20080;-87
2022/08/09 08:32:19;;;;;;;1.75;0.70;;;20.90;99.90;;;;;;5110684;28;20043;-87
2022/08/09 08:34:45;;;;;;;1.85;0.70;;;20.90;99.90;;;;;;5094146;28;20031;-88
2022/08/09 08:37:11;;;;;;;1.48;0.50;;;20.90;99.90;;;;;;5094198;28;20058;-87
2022/08/09 08:39:37;;;;;;;1.92;0.45;;;20.80;99.90;;;;;;5109980;28;20036;-87
2022/08/09 08:42:03;;;;;;;3.85;1.20;;;20.80;99.90;;;;;;5093090;28;20053;-86
2022/08/09 08:44:32;;;;;;;1.52;0.40;;;20.80;99.90;;;;;;5060074;28;20127;-87
2022/08/09 08:46:58;;;;;;;1.13;0.45;;;20.80;99.90;;;;;;5110811;28;20086;-87
2022/08/09 08:49:24;;;;;;;1.83;0.43;;;20.90;99.90;;;;;;5093298;28;20151;-87
2022/08/09 08:51:50;;;;;;;1.65;0.50;;;20.80;99.90;;;;;;5110793;28;20088;-87
2022/08/09 08:54:16;;;;;;;0.77;0.40;;;20.90;99.90;;;;;;5111648;28;20453;-87
2022/08/09 08:56:44;;;;;;;1.08;0.20;;;20.90;99.90;;;;;;5113033;28;20047;-87
2022/08/09 08:59:11;;;;;;;1.02;0.60;;;21.00;99.90;;;;;;5096010;28;20134;-87
2022/08/09 09:01:41;;;;;;;1.17;0.43;;;21.10;99.90;;;;;;5112964;28;20439;-87
2022/08/09 09:04:10;;;;;;;1.75;0.40;;;21.20;99.90;;;;;;5096571;28;20535;-88
2022/08/09 09:06:44;;;;;;;2.80;0.50;;;21.30;99.90;;;;;;5096043;28;20039;-87
2022/08/09 09:09:14;;;;;;;5.35;0.60;;;21.50;99.90;;;;;;5093705;28;20050;-88
2022/08/09 09:11:42;;;;;;;2.08;0.52;;;21.60;99.90;;;;;;5093514;28;20044;-87
2022/08/09 09:14:15;;;;;;;1.30;0.40;;;21.70;99.90;;;;;;5110510;28;20042;-88
2022/08/09 09:16:41;;;;;;;2.05;0.45;;;22.00;99.90;;;;;;5129085;28;20118;-87
2022/08/09 09:19:09;;;;;;;1.20;0.45;;;21.60;99.90;;;;;;5093373;28;20099;-87
2022/08/09 09:21:34;;;;;;;3.95;0.80;;;22.30;99.90;;;;;;5092951;28;20089;-88
2022/08/09 09:24:05;;;;;;;3.53;0.30;;;21.80;99.90;;;;;;5059595;28;20074;-88
2022/08/09 09:26:33;;;;;;;0.93;0.28;;;22.00;99.90;;;;;;5111455;28;20043;-88
2022/08/09 09:29:00;;;;;;;2.00;0.40;;;22.10;99.90;;;;;;5093479;28;20172;-87
2022/08/09 09:31:28;;;;;;;1.65;0.50;;;22.20;99.90;;;;;;5107103;28;20050;-88
2022/08/09 09:34:13;;;;;;;1.23;0.40;;;22.20;99.90;;;;;;5107121;27;20108;-88
2022/08/09 09:36:40;;;;;;;5.43;1.08;;;22.30;99.90;;;;;;5127873;27;20061;-87
2022/08/09 09:39:08;;;;;;;0.90;0.40;;;22.30;99.90;;;;;;5111196;27;20692;-88
2022/08/09 09:41:34;;;;;;;2.88;0.40;;;22.40;99.90;;;;;;5093472;27;20054;-88
2022/08/09 09:44:03;;;;;;;0.90;0.32;;;22.70;99.90;;;;;;5110556;27;20039;-88
2022/08/09 09:46:40;;;;;;;2.40;0.38;;;22.90;99.90;;;;;;5110556;27;20039;-88
2022/08/09 09:49:09;;;;;;;0.82;0.30;;;22.80;99.90;;;;;;5110440;27;20039;-88
2022/08/09 09:51:36;;;;;;;1.45;0.50;;;22.70;99.90;;;;;;5111016;27;20512;-87
2022/08/09 09:54:11;;;;;;;1.10;0.38;;;22.60;99.90;;;;;;5110098;27;20978;-88
2022/08/09 09:56:43;;;;;;;1.38;0.20;;;22.50;99.90;;;;;;5110931;27;20047;-88
2022/08/09 09:59:10;;;;;;;1.45;0.40;;;22.30;99.90;;;;;;5110489;27;20035;-88
2022/08/09 10:01:36;;;;;;;2.00;0.22;;;22.30;99.90;;;;;;5089492;28;20052;-87
2022/08/09 10:04:03;;;;;;;1.80;0.30;;;22.40;99.90;;;;;;5089660;28;20513;-88
2022/08/09 10:06:40;;;;;;;0.80;0.10;;;22.60;99.90;;;;;;5072967;28;20075;-88
2022/08/09 10:09:07;;;;;;;1.33;0.20;;;22.60;99.90;;;;;;5089606;28;20559;-87
2022/08/09 10:11:34;;;;;;;1.65;0.20;;;22.60;99.90;;;;;;5056225;28;20466;-87
2022/08/09 10:14:01;;;;;;;1.05;0.35;;;22.50;99.90;;;;;;5089736;28;20076;-88
2022/08/09 10:16:37;;;;;;;1.15;0.30;;;22.50;99.90;;;;;;5072641;28;20036;-88
2022/08/09 10:19:05;;;;;;;0.60;0.20;;;22.60;99.90;;;;;;5089224;28;20040;-88
2022/08/09 10:21:32;;;;;;;0.70;0.20;;;22.60;99.90;;;;;;5106738;28;20051;-88
2022/08/09 10:24:00;;;;;;;1.45;0.15;;;22.60;99.90;;;;;;5089500;28;20528;-86
2022/08/09 10:26:27;;;;;;;0.57;0.10;;;22.80;99.90;;;;;;5073110;28;20167;-87
2022/08/09 10:28:53;;;;;;;3.30;0.30;;;23.00;99.90;;;;;;5089315;28;20039;-87
2022/08/09 10:31:19;;;;;;;0.40;0.20;;;23.10;99.90;;;;;;5089361;28;20044;-88
2022/08/09 10:33:45;;;;;;;0.15;0.10;;;23.30;99.90;;;;;;5089280;28;20076;-88
2022/08/09 10:36:13;;;;;;;0.52;0.20;;;23.60;99.90;;;;;;5089583;28;20137;-86
2022/08/09 10:38:44;;;;;;;0.15;0.13;;;23.80;99.90;;;;;;5089377;28;20048;-88
2022/08/09 10:41:11;;;;;;;1.00;0.20;;;24.10;99.90;;;;;;5105916;28;20123;-88
2022/08/09 10:43:42;;;;;;;1.92;0.30;;;24.30;99.90;;;;;;5072256;28;20128;-87
2022/08/09 10:46:30;;;;;;;4.18;0.30;;;24.30;99.90;;;;;;5088232;28;20100;-87
2022/08/09 10:49:17;;;;;;;0.60;0.10;;;24.20;99.90;;;;;;5089330;28;20044;-87
2022/08/09 10:52:17;;;;;;;4.00;0.20;;;24.30;99.90;;;;;;5105849;28;20047;-87
2022/08/09 10:54:42;;;;;;;0.30;0.13;;;24.40;99.90;;;;;;5105572;28;20598;-88
2022/08/09 10:57:12;;;;;;;1.77;0.30;;;24.70;99.90;;;;;;5105633;28;20086;-87
2022/08/09 10:59:39;;;;;;;0.50;0.20;;;25.00;99.90;;;;;;5090932;27;20136;-88
2022/08/09 11:02:07;;;;;;;0.10;0.10;;;25.40;99.90;;;;;;5092057;27;20543;-88
2022/08/09 11:04:34;;;;;;;0.40;0.20;;;25.70;99.90;;;;;;5092007;27;20509;-88
2022/08/09 11:07:00;;;;;;;0.40;0.20;;;25.80;99.90;;;;;;5091741;27;20046;-88
2022/08/09 11:09:38;;;;;;;0.93;0.25;;;25.80;99.90;;;;;;5091775;27;20035;-87
2022/08/09 11:12:14;;;;;;;0.95;0.20;;;25.90;99.90;;;;;;5127318;27;20409;-88
2022/08/09 11:14:49;;;;;;;0.30;0.20;;;25.90;99.90;;;;;;5108523;27;20043;-87
2022/08/09 11:17:15;;;;;;;0.93;0.85;;;25.80;99.90;;;;;;5092044;27;20043;-88
2022/08/09 11:20:08;;;;;;;1.17;0.20;;;25.70;99.90;;;;;;5108715;27;20043;-88
2022/08/09 11:22:43;;;;;;;0.50;0.20;;;25.60;99.50;;;;;;5109174;27;20074;-89
2022/08/09 11:25:11;;;;;;;0.50;0.20;;;25.40;99.60;;;;;;5092067;27;20492;-88
2022/08/09 11:27:41;;;;;;;1.33;0.40;;;25.20;99.90;;;;;;5091551;27;20069;-88
2022/08/09 11:30:11;;;;;;;3.13;0.30;;;25.10;99.90;;;;;;5091658;27;20092;-87
2022/08/09 11:32:44;;;;;;;1.45;0.32;;;25.20;99.90;;;;;;5108164;27;20446;-88
2022/08/09 11:35:18;;;;;;;1.05;0.30;;;25.40;99.90;;;;;;5108681;27;20510;-88
2022/08/09 11:37:47;;;;;;;0.75;0.20;;;25.30;99.80;;;;;;5108150;27;20039;-88
2022/08/09 11:40:15;;;;;;;3.00;0.30;;;25.20;99.90;;;;;;5091048;27;20051;-89
2022/08/09 11:42:45;;;;;;;0.95;0.32;;;25.10;99.90;;;;;;5091548;27;20459;-87
2022/08/09 11:45:56;;;;;;;1.25;0.30;;;25.10;99.90;;;;;;5090868;27;20042;-88
2022/08/09 11:48:26;;;;;;;0.57;0.22;;;25.10;99.80;;;;;;5045426;27;20054;-88
2022/08/09 11:51:00;;;;;;;1.23;0.15;;;25.00;99.90;;;;;;5091748;27;20039;-88
2022/08/09 11:53:29;;;;;;;1.55;0.30;;;25.00;99.70;;;;;;5107597;27;20494;-88
2022/08/09 11:55:57;;;;;;;0.10;0.10;;;24.90;99.90;;;;;;5091339;27;20046;-88
2022/08/09 11:58:23;;;;;;;0.50;0.20;;;24.80;99.90;;;;;;5107002;27;20435;-88
2022/08/09 12:00:52;;;;;;;1.70;0.30;;;24.80;99.90;;;;;;5107797;27;20102;-87
2022/08/09 12:03:21;;;;;;;1.05;0.35;;;24.70;99.90;;;;;;5107766;27;20067;-88
2022/08/09 12:05:48;;;;;;;0.40;0.17;;;24.80;99.90;;;;;;5108334;27;20048;-88
2022/08/09 12:08:16;;;;;;;0.30;0.20;;;25.00;99.90;;;;;;5107894;27;20078;-88
2022/08/09 12:11:02;;;;;;;0.13;0.13;;;25.10;99.90;;;;;;5107372;28;20039;-88
2022/08/09 12:13:35;;;;;;;1.90;0.20;;;25.30;99.80;;;;;;5107979;27;20047;-88
2022/08/09 12:16:12;;;;;;;0.30;0.10;;;25.60;99.40;;;;;;5107454;27;20058;-87
2022/08/09 12:18:42;;;;;;;0.60;0.15;;;25.70;99.10;;;;;;5074434;27;20135;-87
2022/08/09 12:21:08;;;;;;;0.88;0.30;;;25.80;99.20;;;;;;5107598;28;20089;-88
2022/08/09 12:23:44;;;;;;;1.58;0.30;;;25.70;98.70;;;;;;5090754;28;20078;-88
2022/08/09 12:26:11;;;;;;;0.93;0.38;;;25.60;97.90;;;;;;5107485;28;20043;-87
2022/08/09 12:28:40;;;;;;;0.85;0.40;;;25.70;97.90;;;;;;5107523;28;20039;-88
2022/08/09 12:31:38;;;;;;;1.00;0.20;;;25.80;97.80;;;;;;5090874;28;20059;-88
2022/08/09 12:34:04;;;;;;;0.47;0.30;;;26.00;97.60;;;;;;5035613;28;20055;-88
2022/08/09 12:36:30;;;;;;;0.40;0.20;;;26.20;98.00;;;;;;5090563;28;20081;-88
2022/08/09 12:38:55;;;;;;;0.63;0.30;;;25.60;96.80;;;;;;5073908;28;20047;-88
2022/08/09 12:41:29;;;;;;;0.32;0.22;;;26.20;96.30;;;;;;5090057;28;20576;-88
2022/08/09 12:43:57;;;;;;;1.85;0.40;;;26.10;94.70;;;;;;5090341;28;20550;-88
2022/08/09 12:46:24;;;;;;;0.40;0.30;;;26.10;95.80;;;;;;5107291;28;20043;-88
2022/08/09 12:48:52;;;;;;;0.70;0.20;;;26.10;96.40;;;;;;5090325;28;20092;-88
2022/08/09 12:51:20;;;;;;;0.50;0.30;;;26.20;96.60;;;;;;5090442;28;20046;-89
2022/08/09 12:53:59;;;;;;;0.38;0.20;;;26.30;95.60;;;;;;5107220;28;20035;-88
2022/08/09 12:56:26;;;;;;;0.63;0.20;;;26.40;94.00;;;;;;5107473;28;20501;-88